createdAt,value
2018-02-21T00:00:22.789Z,47.25
2018-02-21T00:02:51.829Z,50.05
2018-02-21T00:05:20.101Z,54.90
2018-02-21T00:07:48.364Z,55.47
2018-02-21T00:10:17.407Z,57.13
2018-02-21T00:12:45.678Z,54.97
2018-02-21T00:15:14.277Z,52.88
2018-02-21T00:17:42.540Z,52.55
2018-02-21T00:20:11.588Z,47.15
2018-02-21T00:22:39.895Z,49.00
2018-02-21T00:25:08.118Z,43.80
2018-02-21T00:27:37.163Z,52.25
2018-02-21T00:30:05.441Z,54.90
2018-02-21T00:32:33.740Z,54.13
2018-02-21T00:35:02.013Z,50.90
2018-02-21T00:37:30.324Z,54.00
2018-02-21T00:39:58.597Z,54.17
2018-02-21T00:42:26.878Z,55.78
2018-02-21T00:44:55.154Z,51.95
2018-02-21T00:47:24.195Z,50.40
2018-02-21T00:49:52.457Z,44.65
2018-02-21T00:52:20.735Z,41.85
2018-02-21T00:54:49.769Z,43.38
2018-02-21T00:57:18.041Z,46.72
2018-02-21T00:59:46.314Z,46.78
2018-02-21T01:02:15.342Z,48.47
2018-02-21T01:04:43.636Z,50.08
2018-02-21T01:07:11.901Z,47.90
2018-02-21T01:09:40.941Z,48.78
2018-02-21T01:12:09.218Z,41.65
2018-02-21T01:14:37.495Z,45.28
2018-02-21T01:17:06.536Z,44.97
2018-02-21T01:19:34.823Z,40.17
2018-02-21T01:22:03.865Z,42.65
2018-02-21T01:24:32.143Z,45.92
2018-02-21T01:27:00.420Z,43.35
2018-02-21T01:29:28.693Z,45.50
2018-02-21T01:31:56.976Z,47.38
2018-02-21T01:34:25.249Z,47.72
2018-02-21T01:36:53.526Z,49.42
2018-02-21T01:39:21.795Z,49.85
2018-02-21T01:41:50.064Z,50.92
2018-02-21T01:44:18.338Z,54.17
2018-02-21T01:46:46.616Z,54.05
2018-02-21T01:49:14.885Z,55.45
2018-02-21T01:51:43.162Z,52.55
2018-02-21T01:54:11.442Z,52.62
2018-02-21T01:56:40.484Z,51.47
2018-02-21T01:59:08.765Z,51.25
2018-02-21T02:01:37.042Z,52.45
2018-02-21T02:04:05.310Z,51.03
2018-02-21T02:06:34.346Z,49.22
2018-02-21T02:09:02.625Z,49.45
2018-02-21T02:11:30.910Z,43.70
2018-02-21T02:13:59.176Z,43.47
2018-02-21T02:16:28.219Z,43.60
2018-02-21T02:18:56.494Z,49.35
2018-02-21T02:21:24.771Z,46.20
2018-02-21T02:23:53.037Z,46.15
2018-02-21T02:26:21.315Z,49.13
2018-02-21T02:28:49.579Z,53.20
2018-02-21T02:31:17.877Z,54.00
2018-02-21T02:33:46.131Z,54.80
2018-02-21T02:36:14.401Z,50.63
2018-02-21T02:41:53.096Z,52.65
2018-02-21T02:44:21.364Z,51.55
2018-02-21T02:46:49.646Z,47.92
2018-02-21T02:49:17.930Z,49.70
2018-02-21T02:51:46.217Z,47.15
2018-02-21T02:54:14.480Z,45.08
2018-02-21T02:56:43.658Z,50.00
2018-02-21T02:59:11.920Z,51.00
2018-02-21T03:01:40.196Z,52.20
2018-02-21T03:04:08.478Z,49.22
2018-02-21T03:06:37.542Z,51.35
2018-02-21T03:09:05.810Z,43.90
2018-02-21T03:11:34.084Z,45.95
2018-02-21T03:14:02.517Z,44.58
2018-02-21T03:16:30.800Z,44.95
2018-02-21T03:18:59.074Z,44.03
2018-02-21T03:21:27.349Z,41.72
2018-02-21T03:23:55.638Z,43.67
2018-02-21T03:26:23.921Z,41.22
2018-02-21T03:28:52.189Z,43.58
2018-02-21T03:31:20.462Z,43.38
2018-02-21T03:33:49.498Z,42.33
2018-02-21T03:36:17.777Z,42.33
2018-02-21T03:38:46.044Z,45.92
2018-02-21T03:41:15.082Z,43.03
2018-02-21T03:43:43.371Z,38.47
2018-02-21T03:46:11.636Z,41.00
2018-02-21T03:48:40.689Z,37.95
2018-02-21T03:51:08.962Z,41.63
2018-02-21T03:53:37.236Z,37.38
2018-02-21T03:56:05.505Z,37.55
2018-02-21T03:58:34.540Z,35.65
2018-02-21T04:01:02.818Z,33.45
2018-02-21T04:03:31.110Z,36.95
2018-02-21T04:05:59.387Z,37.72
2018-02-21T04:08:27.656Z,39.38
2018-02-21T04:10:56.684Z,37.75
2018-02-21T04:13:24.955Z,39.22
2018-02-21T04:15:53.984Z,33.40
2018-02-21T04:18:22.247Z,33.30
2018-02-21T04:20:51.276Z,30.30
2018-02-21T04:23:19.561Z,30.83
2018-02-21T04:25:47.836Z,31.12
2018-02-21T04:28:16.867Z,29.25
2018-02-21T04:30:45.147Z,30.23
2018-02-21T04:33:13.422Z,29.87
2018-02-21T04:35:41.685Z,30.83
2018-02-21T04:38:09.957Z,28.42
2018-02-21T04:40:38.365Z,29.08
2018-02-21T04:43:06.641Z,30.77
2018-02-21T04:45:34.904Z,31.37
2018-02-21T04:48:03.188Z,29.55
2018-02-21T04:50:31.452Z,29.33
2018-02-21T04:52:59.744Z,31.58
2018-02-21T04:58:56.501Z,36.60
2018-02-21T05:01:24.760Z,28.98
2018-02-21T05:03:53.044Z,29.15
2018-02-21T05:06:21.347Z,30.37
2018-02-21T05:08:49.584Z,27.60
2018-02-21T05:11:17.844Z,31.33
2018-02-21T05:13:46.103Z,31.52
2018-02-21T05:16:14.402Z,35.05
2018-02-21T05:18:42.659Z,34.97
2018-02-21T05:21:10.946Z,32.88
2018-02-21T05:23:39.218Z,31.30
2018-02-21T05:26:07.498Z,29.00
2018-02-21T05:28:35.764Z,30.45
2018-02-21T05:31:04.826Z,28.98
2018-02-21T05:33:33.088Z,31.37
2018-02-21T05:36:01.375Z,32.90
2018-02-21T05:38:29.645Z,35.10
2018-02-21T05:40:58.698Z,34.30
2018-02-21T05:43:26.964Z,40.10
2018-02-21T05:45:55.254Z,38.00
2018-02-21T05:48:25.112Z,36.60
2018-02-21T05:50:53.397Z,36.92
2018-02-21T05:53:21.676Z,37.88
2018-02-21T05:55:49.944Z,34.15
2018-02-21T05:58:18.203Z,32.78
2018-02-21T06:00:47.261Z,33.33
2018-02-21T06:03:15.525Z,34.08
2018-02-21T06:05:43.785Z,35.30
2018-02-21T06:08:12.825Z,32.67
2018-02-21T06:10:41.085Z,32.92
2018-02-21T06:13:10.145Z,32.78
2018-02-21T06:15:38.400Z,39.47
2018-02-21T06:18:06.689Z,31.02
2018-02-21T06:20:34.953Z,31.73
2018-02-21T06:23:03.998Z,35.53
2018-02-21T06:25:33.044Z,31.40
2018-02-21T06:28:01.318Z,33.63
2018-02-21T06:30:29.575Z,34.90
2018-02-21T06:32:57.859Z,34.95
2018-02-21T06:35:26.128Z,33.65
2018-02-21T06:37:54.419Z,34.65
2018-02-21T06:40:22.708Z,34.63
2018-02-21T06:42:51.929Z,37.28
2018-02-21T06:45:20.198Z,35.25
2018-02-21T06:47:49.260Z,27.30
2018-02-21T06:50:17.525Z,33.58
2018-02-21T06:52:45.824Z,32.67
2018-02-21T06:55:14.098Z,33.33
2018-02-21T06:57:42.377Z,35.30
2018-02-21T07:00:10.693Z,33.72
2018-02-21T07:02:38.946Z,33.78
2018-02-21T07:05:07.213Z,40.55
2018-02-21T07:07:36.296Z,32.53
2018-02-21T07:10:04.634Z,33.53
2018-02-21T07:12:32.916Z,36.50
2018-02-21T07:15:01.186Z,36.78
2018-02-21T07:17:30.222Z,35.15
2018-02-21T07:19:58.513Z,31.60
2018-02-21T07:22:26.792Z,33.10
2018-02-21T07:24:55.069Z,31.60
2018-02-21T07:27:28.286Z,33.30
2018-02-21T07:29:56.573Z,31.20
2018-02-21T07:32:25.636Z,29.33
2018-02-21T07:34:53.916Z,28.87
2018-02-21T07:37:22.194Z,29.80
2018-02-21T07:39:50.463Z,28.02
2018-02-21T07:42:18.743Z,29.15
2018-02-21T07:44:47.026Z,29.00
2018-02-21T07:47:16.069Z,27.40
2018-02-21T07:49:44.349Z,27.70
2018-02-21T07:52:12.624Z,27.25
2018-02-21T07:54:40.917Z,27.75
2018-02-21T07:57:09.194Z,27.10
2018-02-21T07:59:37.471Z,28.10
2018-02-21T08:02:06.510Z,30.00
2018-02-21T08:04:34.781Z,29.10
2018-02-21T08:07:03.065Z,29.80
2018-02-21T08:09:31.358Z,27.37
2018-02-21T08:11:59.630Z,25.27
2018-02-21T08:14:28.676Z,26.42
2018-02-21T08:16:56.950Z,24.48
2018-02-21T08:19:25.232Z,26.80
2018-02-21T08:21:53.509Z,24.25
2018-02-21T08:24:22.545Z,23.30
2018-02-21T08:26:51.092Z,24.80
2018-02-21T08:29:20.131Z,25.10
2018-02-21T08:31:48.392Z,24.10
2018-02-21T08:34:17.456Z,24.65
2018-02-21T08:36:45.725Z,23.73
2018-02-21T08:39:14.869Z,40.40
2018-02-21T08:41:43.140Z,26.05
2018-02-21T08:44:11.415Z,28.10
2018-02-21T08:46:39.688Z,27.25
2018-02-21T08:49:07.977Z,32.38
2018-02-21T08:51:36.256Z,26.12
2018-02-21T08:54:04.555Z,21.73
2018-02-21T08:56:32.841Z,23.30
2018-02-21T08:59:01.119Z,25.55
2018-02-21T09:01:29.390Z,36.10
2018-02-21T09:03:58.448Z,21.65
2018-02-21T09:06:26.722Z,22.70
2018-02-21T09:08:54.991Z,28.48
2018-02-21T09:11:23.256Z,23.60
2018-02-21T09:13:52.305Z,34.10
2018-02-21T09:16:20.581Z,24.50
2018-02-21T09:18:48.864Z,23.38
2018-02-21T09:21:17.137Z,21.62
2018-02-21T09:23:45.956Z,21.42
2018-02-21T09:26:14.217Z,18.52
2018-02-21T09:28:43.255Z,19.62
2018-02-21T09:31:11.523Z,20.55
2018-02-21T09:33:39.789Z,21.75
2018-02-21T09:36:08.825Z,20.83
2018-02-21T09:38:37.121Z,20.45
2018-02-21T09:41:05.388Z,19.37
2018-02-21T09:43:34.441Z,22.50
2018-02-21T09:46:02.718Z,20.98
2018-02-21T09:48:30.994Z,18.00
2018-02-21T09:50:59.274Z,20.10
2018-02-21T09:53:27.534Z,21.60
2018-02-21T09:55:55.798Z,19.80
2018-02-21T09:58:24.071Z,19.13
2018-02-21T10:00:52.346Z,19.27
2018-02-21T10:03:20.611Z,18.40
2018-02-21T10:05:48.885Z,21.53
2018-02-21T10:08:17.924Z,21.33
2018-02-21T10:10:46.203Z,18.53
2018-02-21T10:13:14.460Z,20.33
2018-02-21T10:15:43.500Z,20.50
2018-02-21T10:18:11.774Z,17.60
2018-02-21T10:20:40.049Z,17.30
2018-02-21T10:23:09.084Z,18.80
2018-02-21T10:25:37.373Z,18.30
2018-02-21T10:28:05.637Z,18.90
2018-02-21T10:30:33.917Z,19.47
2018-02-21T10:33:02.948Z,17.00
2018-02-21T10:35:31.230Z,18.07
2018-02-21T10:37:59.501Z,17.60
2018-02-21T10:40:28.537Z,20.27
2018-02-21T10:42:56.818Z,30.35
2018-02-21T10:45:25.136Z,25.30
2018-02-21T10:47:53.414Z,22.17
2018-02-21T10:50:21.705Z,18.48
2018-02-21T10:52:49.972Z,17.60
2018-02-21T10:55:18.250Z,21.37
2018-02-21T10:57:46.507Z,20.10
2018-02-21T11:00:21.094Z,20.05
2018-02-21T11:02:49.361Z,21.92
2018-02-21T11:05:17.639Z,15.40
2018-02-21T11:07:45.909Z,17.80
2018-02-21T11:10:15.034Z,16.73
2018-02-21T11:12:44.085Z,16.50
2018-02-21T11:15:12.351Z,15.48
2018-02-21T11:17:40.615Z,16.50
2018-02-21T11:20:09.656Z,25.73
2018-02-21T11:22:37.930Z,16.70
2018-02-21T11:25:06.216Z,17.92
2018-02-21T11:27:34.499Z,16.52
2018-02-21T11:30:02.922Z,13.55
2018-02-21T11:32:31.196Z,15.52
2018-02-21T11:34:59.470Z,18.00
2018-02-21T11:37:27.749Z,18.37
2018-02-21T11:39:56.794Z,25.43
2018-02-21T11:42:25.074Z,25.42
2018-02-21T11:44:53.345Z,19.37
2018-02-21T11:47:21.600Z,16.40
2018-02-21T11:49:49.882Z,17.73
2018-02-21T11:52:18.145Z,15.90
2018-02-21T11:54:46.413Z,18.90
2018-02-21T11:57:14.672Z,14.20
2018-02-21T11:59:43.704Z,18.43
2018-02-21T12:02:11.969Z,14.33
2018-02-21T12:04:41.005Z,17.17
2018-02-21T12:07:09.274Z,16.77
2018-02-21T12:09:37.544Z,17.87
2018-02-21T12:12:06.573Z,18.63
2018-02-21T12:14:34.836Z,19.07
2018-02-21T12:17:03.864Z,16.53
2018-02-21T12:19:32.140Z,15.30
2018-02-21T12:22:00.428Z,15.23
2018-02-21T12:24:29.489Z,15.43
2018-02-21T12:26:57.758Z,16.13
2018-02-21T12:29:26.073Z,16.40
2018-02-21T12:31:58.840Z,13.90
2018-02-21T12:34:27.213Z,18.17
2018-02-21T12:36:55.498Z,21.15
2018-02-21T12:39:29.208Z,21.15
2018-02-21T12:41:57.558Z,15.33
2018-02-21T12:44:25.825Z,17.00
2018-02-21T12:46:54.108Z,17.37
2018-02-21T12:49:22.372Z,16.77
2018-02-21T12:51:50.655Z,15.20
2018-02-21T12:54:18.928Z,23.95
2018-02-21T12:56:47.965Z,18.60
2018-02-21T12:59:16.295Z,20.65
2018-02-21T13:01:44.531Z,18.00
2018-02-21T13:04:12.810Z,19.42
2018-02-21T13:06:41.427Z,19.30
2018-02-21T13:09:09.702Z,19.30
2018-02-21T13:11:37.989Z,15.40
2018-02-21T13:14:06.264Z,18.62
2018-02-21T13:16:34.536Z,18.87
2018-02-21T13:19:03.582Z,16.05
2018-02-21T13:21:31.854Z,16.90
2018-02-21T13:24:00.125Z,15.20
2018-02-21T13:26:29.161Z,16.20
2018-02-21T13:28:57.420Z,17.60
2018-02-21T13:31:26.465Z,16.15
2018-02-21T13:33:54.727Z,16.02
2018-02-21T13:36:23.546Z,15.02
2018-02-21T13:38:52.647Z,15.55
2018-02-21T13:41:20.931Z,18.40
2018-02-21T13:43:49.223Z,17.23
2018-02-21T13:46:17.497Z,14.85
2018-02-21T13:48:45.760Z,14.60
2018-02-21T13:51:14.036Z,15.63
2018-02-21T13:53:42.307Z,16.60
2018-02-21T13:56:10.588Z,16.23
2018-02-21T13:58:38.858Z,16.02
2018-02-21T14:01:07.146Z,14.05
2018-02-21T14:03:35.412Z,14.18
2018-02-21T14:06:04.458Z,15.00
2018-02-21T14:08:32.729Z,15.90
2018-02-21T14:11:01.006Z,17.30
2018-02-21T14:13:29.277Z,16.62
2018-02-21T14:15:58.312Z,14.87
2018-02-21T14:18:26.595Z,13.07
2018-02-21T14:20:54.871Z,13.90
2018-02-21T14:23:23.910Z,13.27
2018-02-21T14:25:55.551Z,14.32
2018-02-21T14:28:23.846Z,13.48
2018-02-21T14:30:52.134Z,15.98
2018-02-21T14:33:20.408Z,14.48
2018-02-21T14:35:49.466Z,15.88
2018-02-21T14:38:17.744Z,17.15
2018-02-21T14:40:46.025Z,19.40
2018-02-21T14:43:14.300Z,20.65
2018-02-21T14:45:43.610Z,19.15
2018-02-21T14:48:11.873Z,21.77
2018-02-21T14:50:40.917Z,20.55
2018-02-21T14:53:09.216Z,19.80
2018-02-21T14:55:37.502Z,18.50
2018-02-21T14:58:05.781Z,23.55
2018-02-21T15:00:34.057Z,20.30
2018-02-21T15:03:02.333Z,19.52
2018-02-21T15:05:31.373Z,20.83
2018-02-21T15:07:59.645Z,22.20
2018-02-21T15:10:27.923Z,22.23
2018-02-21T15:12:56.205Z,19.83
2018-02-21T15:15:24.500Z,20.37
2018-02-21T15:17:52.780Z,21.75
2018-02-21T15:20:21.816Z,22.77
2018-02-21T15:22:50.093Z,21.27
2018-02-21T15:25:18.366Z,20.37
2018-02-21T15:27:46.649Z,21.60
2018-02-21T15:30:16.954Z,21.02
2018-02-21T15:32:45.201Z,20.90
2018-02-21T15:35:13.532Z,21.08
2018-02-21T15:37:41.761Z,23.08
2018-02-21T15:40:10.036Z,32.22
2018-02-21T15:42:39.077Z,25.30
2018-02-21T15:45:10.572Z,30.45
2018-02-21T15:47:38.854Z,38.15
2018-02-21T15:50:07.125Z,18.90
2018-02-21T15:52:35.400Z,30.02
2018-02-21T15:55:03.768Z,28.12
2018-02-21T15:57:32.808Z,17.10
2018-02-21T16:00:01.089Z,19.52
2018-02-21T16:02:29.377Z,35.58
2018-02-21T16:04:57.657Z,28.42
2018-02-21T16:07:25.928Z,26.83
2018-02-21T16:09:54.196Z,17.67
2018-02-21T16:12:23.248Z,19.65
2018-02-21T16:14:51.551Z,19.70
2018-02-21T16:17:19.841Z,23.92
2018-02-21T16:19:48.108Z,17.73
2018-02-21T16:22:16.414Z,25.17
2018-02-21T16:24:44.684Z,21.42
2018-02-21T16:27:12.960Z,21.65
2018-02-21T16:29:41.233Z,22.95
2018-02-21T16:32:10.264Z,22.25
2018-02-21T16:34:38.534Z,27.23
2018-02-21T16:37:06.812Z,19.10
2018-02-21T16:39:35.845Z,20.65
2018-02-21T16:42:04.115Z,21.58
2018-02-21T16:44:33.152Z,20.00
2018-02-21T16:47:01.428Z,22.17
2018-02-21T16:49:29.706Z,20.48
2018-02-21T16:51:58.015Z,22.50
2018-02-21T16:54:27.153Z,21.20
2018-02-21T16:56:55.427Z,20.20
2018-02-21T16:59:23.696Z,19.73
2018-02-21T17:01:51.986Z,19.25
2018-02-21T17:04:20.265Z,21.37
2018-02-21T17:06:48.556Z,21.75
2018-02-21T17:09:16.822Z,23.10
2018-02-21T17:11:45.876Z,22.33
2018-02-21T17:14:14.143Z,20.45
2018-02-21T17:16:42.414Z,21.37
2018-02-21T17:19:10.698Z,21.52
2018-02-21T17:21:39.750Z,21.15
2018-02-21T17:24:08.029Z,19.98
2018-02-21T17:26:36.347Z,21.87
2018-02-21T17:29:04.664Z,19.60
2018-02-21T17:31:33.699Z,19.30
2018-02-21T17:34:01.974Z,20.83
2018-02-21T17:36:30.251Z,19.62
2018-02-21T17:38:59.287Z,20.42
2018-02-21T17:41:33.562Z,21.50
2018-02-21T17:44:06.816Z,21.58
2018-02-21T17:46:35.867Z,21.30
2018-02-21T17:49:04.140Z,19.12
2018-02-21T17:51:32.445Z,19.95
2018-02-21T17:54:04.274Z,19.45
2018-02-21T17:56:37.292Z,22.33
2018-02-21T17:59:05.557Z,21.55
2018-02-21T18:01:33.821Z,19.60
2018-02-21T18:04:02.868Z,20.02
2018-02-21T18:06:31.143Z,21.95
2018-02-21T18:09:18.080Z,17.83
2018-02-21T18:11:46.365Z,24.55
2018-02-21T18:14:16.587Z,19.62
2018-02-21T18:16:44.865Z,21.12
2018-02-21T18:19:13.135Z,17.40
2018-02-21T18:21:50.810Z,20.70
2018-02-21T18:24:19.122Z,21.75
2018-02-21T18:26:47.418Z,18.80
2018-02-21T18:29:15.681Z,19.55
2018-02-21T18:31:43.948Z,25.48
2018-02-21T18:34:14.170Z,25.88
2018-02-21T18:36:42.556Z,23.50
2018-02-21T18:39:10.865Z,19.33
2018-02-21T18:41:39.138Z,25.00
2018-02-21T18:44:07.413Z,19.42
2018-02-21T18:46:35.681Z,25.70
2018-02-21T18:49:04.732Z,25.20
2018-02-21T18:51:32.995Z,16.55
2018-02-21T18:54:01.269Z,20.77
2018-02-21T18:56:30.316Z,17.52
2018-02-21T18:58:58.593Z,18.58
2018-02-21T19:01:28.824Z,18.12
2018-02-21T19:03:57.101Z,18.40
2018-02-21T19:06:25.373Z,19.35
2018-02-21T19:09:13.673Z,19.60
2018-02-21T19:11:41.925Z,18.20
2018-02-21T19:14:10.965Z,19.73
2018-02-21T19:16:39.994Z,18.40
2018-02-21T19:19:08.269Z,18.20
2018-02-21T19:21:37.454Z,18.60
2018-02-21T19:24:05.727Z,20.33
2018-02-21T19:26:34.763Z,20.62
2018-02-21T19:29:03.166Z,20.25
2018-02-21T19:31:31.437Z,21.62
2018-02-21T19:33:59.706Z,20.42
2018-02-21T19:36:28.732Z,22.00
2018-02-21T19:38:57.020Z,21.65
2018-02-21T19:41:25.285Z,22.02
2018-02-21T19:43:56.258Z,21.80
2018-02-21T19:46:25.457Z,21.35
2018-02-21T19:48:55.419Z,21.83
2018-02-21T19:54:02.016Z,22.20
2018-02-21T19:56:30.272Z,20.90
2018-02-21T19:58:59.322Z,21.40
2018-02-21T20:01:27.589Z,20.90
2018-02-21T20:03:55.880Z,22.90
2018-02-21T20:06:24.146Z,23.02
2018-02-21T20:08:53.518Z,22.80
2018-02-21T20:11:21.787Z,22.02
2018-02-21T20:13:50.060Z,19.98
2018-02-21T20:16:18.363Z,19.42
2018-02-21T20:18:46.637Z,21.60
2018-02-21T20:21:14.901Z,19.00
2018-02-21T20:23:43.954Z,21.37
2018-02-21T20:26:12.230Z,22.00
2018-02-21T20:28:40.514Z,20.27
2018-02-21T20:31:08.788Z,23.00
2018-02-21T20:33:37.076Z,20.48
2018-02-21T20:36:05.353Z,23.90
2018-02-21T20:38:33.641Z,22.13
2018-02-21T20:41:02.677Z,22.73
2018-02-21T20:43:31.742Z,21.08
2018-02-21T20:46:00.002Z,21.73
2018-02-21T20:48:28.278Z,22.90
2018-02-21T20:50:56.540Z,22.40
2018-02-21T20:53:24.821Z,21.67
2018-02-21T20:55:53.083Z,17.67
2018-02-21T20:58:22.119Z,21.55
2018-02-21T21:00:50.396Z,21.20
2018-02-21T21:03:18.683Z,19.45
2018-02-21T21:05:47.718Z,18.70
2018-02-21T21:08:16.016Z,20.08
2018-02-21T21:10:44.284Z,19.92
2018-02-21T21:13:12.565Z,21.23
2018-02-21T21:15:40.842Z,18.37
2018-02-21T21:18:09.125Z,20.73
2018-02-21T21:20:37.426Z,19.90
2018-02-21T21:23:05.704Z,18.70
2018-02-21T21:25:34.728Z,16.98
2018-02-21T21:28:03.031Z,19.67
2018-02-21T21:30:31.287Z,19.60
2018-02-21T21:33:00.340Z,20.85
2018-02-21T21:35:28.622Z,17.35
2018-02-21T21:37:56.905Z,18.67
2018-02-21T21:40:25.949Z,16.30
2018-02-21T21:42:54.228Z,18.12
2018-02-21T21:45:22.512Z,19.90
2018-02-21T21:47:50.789Z,21.15
2018-02-21T21:50:19.077Z,19.73
2018-02-21T21:52:47.353Z,19.98
2018-02-21T21:55:15.628Z,19.25
2018-02-21T21:57:43.909Z,19.58
2018-02-21T22:00:12.179Z,19.37
2018-02-21T22:02:41.234Z,17.67
2018-02-21T22:05:09.507Z,17.60
2018-02-21T22:07:37.782Z,19.30
2018-02-21T22:10:06.067Z,17.45
2018-02-21T22:12:34.340Z,16.90
2018-02-21T22:15:03.381Z,18.75
2018-02-21T22:17:31.651Z,19.10
2018-02-21T22:19:59.920Z,17.35
2018-02-21T22:22:28.948Z,16.90
2018-02-21T22:24:57.229Z,20.55
2018-02-21T22:27:25.505Z,18.90
2018-02-21T22:29:54.562Z,17.40
2018-02-21T22:32:22.825Z,17.25
2018-02-21T22:34:51.105Z,18.25
2018-02-21T22:37:19.382Z,17.48
2018-02-21T22:39:48.424Z,19.50
2018-02-21T22:42:16.694Z,19.70
2018-02-21T22:44:44.982Z,20.45
2018-02-21T22:47:13.257Z,19.35
2018-02-21T22:49:41.527Z,18.52
2018-02-21T22:52:10.572Z,19.52
2018-02-21T22:54:38.853Z,18.25
2018-02-21T22:57:07.889Z,20.20
2018-02-21T22:59:36.171Z,20.25
2018-02-21T23:02:04.442Z,19.85
2018-02-21T23:04:32.715Z,20.98
2018-02-21T23:07:00.986Z,21.08
2018-02-21T23:09:30.038Z,21.20
2018-02-21T23:11:58.299Z,20.65
2018-02-21T23:14:26.577Z,19.73
2018-02-21T23:16:54.859Z,19.67
2018-02-21T23:19:23.896Z,20.12
2018-02-21T23:21:52.178Z,20.25
2018-02-21T23:24:20.444Z,18.52
2018-02-21T23:26:49.479Z,20.23
2018-02-21T23:29:17.761Z,20.27
2018-02-21T23:31:46.791Z,20.37
2018-02-21T23:34:15.072Z,19.80
2018-02-21T23:36:43.332Z,20.40
2018-02-21T23:39:11.603Z,19.27
2018-02-21T23:41:40.630Z,19.00
2018-02-21T23:44:08.912Z,20.75
2018-02-21T23:46:37.947Z,19.05
2018-02-21T23:49:06.234Z,19.77
2018-02-21T23:51:34.503Z,19.30
2018-02-21T23:54:02.779Z,19.10
2018-02-21T23:56:31.813Z,18.05
2018-02-21T23:59:00.088Z,18.02
